Time;durP1;ratioP1;P1;durP2;ratioP2;P2;SDS_P1;SDS_P2;PMS_P1;PMS_P2;Temp;Humidity;BMP_temperature;BMP_pressure;BME280_temperature;BME280_humidity;BME280_pressure;Samples;Min_cycle;Max_cycle;Signal;HPM_P1;HPM_P2
2022/10/14 00:00:10;;;;;;;;;;;;;;;;;;5117641;28;19916;-79
2022/10/14 00:02:35;;;;;;;;;;;;;;;;;;5099554;28;19915;-79
2022/10/14 00:05:01;;;;;;;;;;;;;;;;;;5099859;28;20539;-78
2022/10/14 00:07:26;;;;;;;;;;;;;;;;;;5099534;28;20277;-79
2022/10/14 00:09:51;;;;;;;;;;;;;;;;;;5117598;28;20261;-78
2022/10/14 00:12:17;;;;;;;;;;;;;;;;;;5099494;28;19934;-78
2022/10/14 00:14:42;;;;;;;;;;;;;;;;;;5117595;28;19916;-78
2022/10/14 00:17:07;;;;;;;;;;;;;;;;;;5117633;28;19984;-78
2022/10/14 00:19:33;;;;;;;;;;;;;;;;;;5099666;28;20313;-78
2022/10/14 00:21:58;;;;;;;;;;;;;;;;;;5099560;28;19916;-79
2022/10/14 00:24:23;;;;;;;;;;;;;;;;;;5117401;28;19916;-81
2022/10/14 00:26:48;;;;;;;;;;;;;;;;;;5099133;28;19920;-80
2022/10/14 00:29:14;;;;;;;;;;;;;;;;;;5081853;28;19916;-81
2022/10/14 00:31:40;;;;;;;;;;;;;;;;;;5099305;28;19916;-80
2022/10/14 00:34:05;;;;;;;;;;;;;;;;;;5099091;28;19916;-80
2022/10/14 00:36:30;;;;;;;;;;;;;;;;;;5117141;28;19972;-81
2022/10/14 00:38:56;;;;;;;;;;;;;;;;;;5117088;28;19916;-81
2022/10/14 00:41:28;;;;;;;;;;;;;;;;;;5115853;28;20003;-80
2022/10/14 00:43:53;;;;;;;;;;;;;;;;;;5098496;28;19965;-81
2022/10/14 00:46:19;;;;;;;;;;;;;;;;;;5117058;28;19955;-80
2022/10/14 00:48:44;;;;;;;;;;;;;;;;;;5116983;28;19915;-80
2022/10/14 00:51:09;;;;;;;;;;;;;;;;;;5099039;28;19923;-80
2022/10/14 00:53:35;;;;;;;;;;;;;;;;;;5098680;28;19915;-80
2022/10/14 00:56:00;;;;;;;;;;;;;;;;;;5098721;28;19916;-80
2022/10/14 00:58:26;;;;;;;;;;;;;;;;;;5116501;28;19916;-81
2022/10/14 01:00:51;;;;;;;;;;;;;;;;;;5081636;28;19922;-81
2022/10/14 01:03:18;;;;;;;;;;;;;;;;;;5081724;28;19915;-81
2022/10/14 01:05:47;;;;;;;;;;;;;;;;;;5098842;28;19954;-80
2022/10/14 01:08:14;;;;;;;;;;;;;;;;;;5098327;28;20329;-80
2022/10/14 01:10:58;;;;;;;;;;;;;;;;;;5098706;28;20010;-81
2022/10/14 01:13:25;;;;;;;;;;;;;;;;;;5098295;28;19915;-80
2022/10/14 01:15:54;;;;;;;;;;;;;;;;;;5098316;28;19916;-80
2022/10/14 01:18:23;;;;;;;;;;;;;;;;;;5116586;28;19915;-81
2022/10/14 01:20:54;;;;;;;;;;;;;;;;;;5116323;28;20006;-80
2022/10/14 01:23:37;;;;;;;;;;;;;;;;;;5116277;28;19915;-80
2022/10/14 01:26:18;;;;;;;;;;;;;;;;;;5097666;28;20312;-80
2022/10/14 01:28:59;;;;;;;;;;;;;;;;;;5098008;28;19923;-81
2022/10/14 01:31:26;;;;;;;;;;;;;;;;;;5097891;28;19919;-80
2022/10/14 01:33:52;;;;;;;;;;;;;;;;;;5098140;28;19915;-80
2022/10/14 01:36:22;;;;;;;;;;;;;;;;;;5098817;28;19947;-80
2022/10/14 01:38:51;;;;;;;;;;;;;;;;;;5117965;28;19920;-80
2022/10/14 01:41:29;;;;;;;;;;;;;;;;;;5099327;28;20267;-81
2022/10/14 01:43:56;;;;;;;;;;;;;;;;;;5099974;28;19916;-80
2022/10/14 01:46:22;;;;;;;;;;;;;;;;;;5117422;28;19923;-80
2022/10/14 01:48:48;;;;;;;;;;;;;;;;;;5108364;28;19920;-78
2022/10/14 01:51:18;;;;;;;;;;;;;;;;;;5121008;28;19920;-79
2022/10/14 01:53:48;;;;;;;;;;;;;;;;;;5120492;28;19907;-80
2022/10/14 01:56:13;;;;;;;;;;;;;;;;;;5138431;28;19911;-81
2022/10/14 01:58:38;;;;;;;;;;;;;;;;;;5120597;28;19908;-81
2022/10/14 02:01:04;;;;;;;;;;;;;;;;;;5116743;28;19919;-81
2022/10/14 02:03:39;;;;;;;;;;;;;;;;;;5097238;28;19938;-80
2022/10/14 02:06:05;;;;;;;;;;;;;;;;;;5097418;28;19922;-79
2022/10/14 02:08:33;;;;;;;;;;;;;;;;;;5080446;28;19920;-80
2022/10/14 02:11:09;;;;;;;;;;;;;;;;;;5093653;28;19916;-79
2022/10/14 02:13:42;;;;;;;;;;;;;;;;;;5077014;28;19916;-80
2022/10/14 02:16:16;;;;;;;;;;;;;;;;;;5094078;28;19916;-80
2022/10/14 02:18:50;;;;;;;;;;;;;;;;;;5094897;28;19916;-80
2022/10/14 02:21:33;;;;;;;;;;;;;;;;;;5095427;28;19916;-80
2022/10/14 02:24:04;;;;;;;;;;;;;;;;;;5094458;28;20325;-80
2022/10/14 02:26:29;;;;;;;;;;;;;;;;;;5076674;28;19916;-80
2022/10/14 02:28:55;;;;;;;;;;;;;;;;;;5093725;28;19974;-80
2022/10/14 02:31:20;;;;;;;;;;;;;;;;;;5093469;28;19958;-80
2022/10/14 02:33:47;;;;;;;;;;;;;;;;;;5094701;28;19924;-80
2022/10/14 02:36:13;;;;;;;;;;;;;;;;;;5076790;28;19916;-80
2022/10/14 02:38:39;;;;;;;;;;;;;;;;;;5093213;28;19916;-81
2022/10/14 02:41:04;;;;;;;;;;;;;;;;;;5094613;28;19923;-80
2022/10/14 02:43:30;;;;;;;;;;;;;;;;;;5076572;28;19916;-80
2022/10/14 02:45:55;;;;;;;;;;;;;;;;;;5076395;28;19916;-80
2022/10/14 02:48:21;;;;;;;;;;;;;;;;;;5076583;28;19919;-80
2022/10/14 02:50:46;;;;;;;;;;;;;;;;;;5094451;28;20276;-81
2022/10/14 02:53:11;;;;;;;;;;;;;;;;;;5092960;28;20339;-81
2022/10/14 02:55:37;;;;;;;;;;;;;;;;;;5093158;28;20374;-80
2022/10/14 02:58:02;;;;;;;;;;;;;;;;;;5094456;28;19916;-81
2022/10/14 03:00:27;;;;;;;;;;;;;;;;;;5093028;28;19923;-81
2022/10/14 03:02:53;;;;;;;;;;;;;;;;;;5094528;28;19968;-80
2022/10/14 03:05:18;;;;;;;;;;;;;;;;;;5096153;28;19916;-80
2022/10/14 03:07:43;;;;;;;;;;;;;;;;;;5099608;28;20035;-80
2022/10/14 03:10:09;;;;;;;;;;;;;;;;;;5120778;28;19923;-81
2022/10/14 03:12:34;;;;;;;;;;;;;;;;;;5103192;28;20366;-81
2022/10/14 03:15:00;;;;;;;;;;;;;;;;;;5103085;28;19939;-81
2022/10/14 03:17:25;;;;;;;;;;;;;;;;;;5103064;28;20018;-81
2022/10/14 03:19:50;;;;;;;;;;;;;;;;;;5121299;28;20002;-81
2022/10/14 03:22:16;;;;;;;;;;;;;;;;;;5120887;28;19927;-80
2022/10/14 03:24:41;;;;;;;;;;;;;;;;;;5103048;28;19965;-81
2022/10/14 03:27:06;;;;;;;;;;;;;;;;;;5102938;28;19916;-80
2022/10/14 03:29:31;;;;;;;;;;;;;;;;;;5121258;28;19916;-81
2022/10/14 03:32:00;;;;;;;;;;;;;;;;;;5121270;28;19922;-80
2022/10/14 03:34:27;;;;;;;;;;;;;;;;;;5121544;28;19973;-81
2022/10/14 03:36:52;;;;;;;;;;;;;;;;;;5102950;28;19920;-80
2022/10/14 03:39:19;;;;;;;;;;;;;;;;;;5103130;28;19926;-81
2022/10/14 03:41:44;;;;;;;;;;;;;;;;;;5103049;28;19923;-81
2022/10/14 03:44:10;;;;;;;;;;;;;;;;;;5102938;28;19916;-80
2022/10/14 03:46:35;;;;;;;;;;;;;;;;;;5086216;28;19915;-81
2022/10/14 03:49:01;;;;;;;;;;;;;;;;;;5085772;28;19915;-81
2022/10/14 03:51:26;;;;;;;;;;;;;;;;;;5102728;28;19916;-80
2022/10/14 03:53:51;;;;;;;;;;;;;;;;;;5086023;28;19989;-81
2022/10/14 03:56:17;;;;;;;;;;;;;;;;;;5102783;28;19942;-81
2022/10/14 03:58:42;;;;;;;;;;;;;;;;;;5086012;28;19923;-80
2022/10/14 04:01:07;;;;;;;;;;;;;;;;;;5102627;28;19916;-80
2022/10/14 04:03:33;;;;;;;;;;;;;;;;;;5085870;28;19922;-80
2022/10/14 04:05:58;;;;;;;;;;;;;;;;;;5099352;28;19916;-78
2022/10/14 04:08:23;;;;;;;;;;;;;;;;;;5120584;28;19920;-77
2022/10/14 04:10:52;;;;;;;;;;;;;;;;;;5121003;28;19916;-78
2022/10/14 04:13:17;;;;;;;;;;;;;;;;;;5085659;28;20003;-77
2022/10/14 04:15:42;;;;;;;;;;;;;;;;;;5102579;28;20002;-77
2022/10/14 04:18:08;;;;;;;;;;;;;;;;;;5116868;28;19922;-78
2022/10/14 04:20:33;;;;;;;;;;;;;;;;;;5099216;28;19922;-77
2022/10/14 04:22:59;;;;;;;;;;;;;;;;;;5099150;28;19964;-78
2022/10/14 04:25:24;;;;;;;;;;;;;;;;;;5099431;28;19916;-77
2022/10/14 04:27:49;;;;;;;;;;;;;;;;;;5099092;28;20010;-77
2022/10/14 04:30:14;;;;;;;;;;;;;;;;;;5099493;28;20065;-78
2022/10/14 04:32:40;;;;;;;;;;;;;;;;;;5117180;28;19959;-78
2022/10/14 04:35:08;;;;;;;;;;;;;;;;;;5098234;28;19915;-76
2022/10/14 04:37:34;;;;;;;;;;;;;;;;;;5116128;28;19920;-77
2022/10/14 04:39:59;;;;;;;;;;;;;;;;;;5097808;28;20260;-78
2022/10/14 04:42:24;;;;;;;;;;;;;;;;;;5080988;28;20185;-77
2022/10/14 04:44:49;;;;;;;;;;;;;;;;;;5098267;28;19917;-78
2022/10/14 04:47:15;;;;;;;;;;;;;;;;;;5116605;28;19915;-77
2022/10/14 04:49:41;;;;;;;;;;;;;;;;;;5116536;28;19920;-80
2022/10/14 04:52:07;;;;;;;;;;;;;;;;;;5101817;28;19916;-75
2022/10/14 04:54:33;;;;;;;;;;;;;;;;;;5092990;28;19969;-77
2022/10/14 04:56:59;;;;;;;;;;;;;;;;;;5111363;28;20233;-76
2022/10/14 04:59:27;;;;;;;;;;;;;;;;;;5093044;28;20277;-76
2022/10/14 05:01:52;;;;;;;;;;;;;;;;;;5071946;28;20050;-76
2022/10/14 05:04:18;;;;;;;;;;;;;;;;;;5107298;28;20329;-75
2022/10/14 05:06:51;;;;;;;;;;;;;;;;;;5093538;28;19931;-78
2022/10/14 05:09:17;;;;;;;;;;;;;;;;;;5079255;28;20367;-77
2022/10/14 05:11:43;;;;;;;;;;;;;;;;;;5090542;28;19916;-79
2022/10/14 05:14:08;;;;;;;;;;;;;;;;;;5091110;28;19916;-78
2022/10/14 05:16:33;;;;;;;;;;;;;;;;;;5090784;28;19976;-77
2022/10/14 05:18:59;;;;;;;;;;;;;;;;;;5090135;28;19945;-77
2022/10/14 05:21:24;;;;;;;;;;;;;;;;;;5055720;28;19958;-78
2022/10/14 05:23:50;;;;;;;;;;;;;;;;;;5073097;28;20340;-75
2022/10/14 05:26:16;;;;;;;;;;;;;;;;;;5090961;28;19920;-76
2022/10/14 05:28:41;;;;;;;;;;;;;;;;;;5071882;28;20228;-74
2022/10/14 05:31:06;;;;;;;;;;;;;;;;;;5074140;28;20017;-74
2022/10/14 05:33:32;;;;;;;;;;;;;;;;;;5074732;28;19920;-77
2022/10/14 05:36:10;;;;;;;;;;;;;;;;;;5075530;28;20362;-75
2022/10/14 05:38:36;;;;;;;;;;;;;;;;;;5077148;28;19920;-77
2022/10/14 05:41:01;;;;;;;;;;;;;;;;;;5076877;28;20241;-77
2022/10/14 05:43:27;;;;;;;;;;;;;;;;;;5106317;28;19929;-76
2022/10/14 05:45:52;;;;;;;;;;;;;;;;;;5097083;28;19920;-75
2022/10/14 05:48:18;;;;;;;;;;;;;;;;;;5108453;28;20023;-75
2022/10/14 05:51:02;;;;;;;;;;;;;;;;;;5096516;28;20265;-76
2022/10/14 05:53:31;;;;;;;;;;;;;;;;;;5075601;28;20022;-76
2022/10/14 05:56:02;;;;;;;;;;;;;;;;;;5094054;28;20614;-76
2022/10/14 05:58:27;;;;;;;;;;;;;;;;;;5105858;28;20382;-76
2022/10/14 06:00:53;;;;;;;;;;;;;;;;;;5091622;28;20006;-78
2022/10/14 06:03:18;;;;;;;;;;;;;;;;;;5100049;28;19919;-78
2022/10/14 06:05:44;;;;;;;;;;;;;;;;;;5112081;28;19916;-77
2022/10/14 06:08:09;;;;;;;;;;;;;;;;;;5110111;28;19991;-79
2022/10/14 06:10:39;;;;;;;;;;;;;;;;;;5111903;28;20507;-77
2022/10/14 06:13:05;;;;;;;;;;;;;;;;;;5079102;28;19985;-77
2022/10/14 06:15:30;;;;;;;;;;;;;;;;;;5095151;28;20018;-77
2022/10/14 06:17:55;;;;;;;;;;;;;;;;;;5111471;28;19997;-75
2022/10/14 06:20:21;;;;;;;;;;;;;;;;;;5114582;28;19916;-76
2022/10/14 06:22:46;;;;;;;;;;;;;;;;;;5107693;28;19984;-77
2022/10/14 06:25:14;;;;;;;;;;;;;;;;;;5111818;28;19924;-75
2022/10/14 06:27:41;;;;;;;;;;;;;;;;;;5116855;28;19920;-76
2022/10/14 06:30:07;;;;;;;;;;;;;;;;;;5097513;28;20309;-76
2022/10/14 06:32:32;;;;;;;;;;;;;;;;;;5113063;28;20006;-76
2022/10/14 06:34:59;;;;;;;;;;;;;;;;;;5112985;28;20244;-77
2022/10/14 06:37:24;;;;;;;;;;;;;;;;;;5113537;28;20025;-77
2022/10/14 06:39:49;;;;;;;;;;;;;;;;;;5093641;28;19962;-74
2022/10/14 06:42:15;;;;;;;;;;;;;;;;;;5073402;28;20273;-76
2022/10/14 06:44:40;;;;;;;;;;;;;;;;;;5087105;28;20004;-77
2022/10/14 06:47:06;;;;;;;;;;;;;;;;;;5100280;28;20262;-77
2022/10/14 06:49:32;;;;;;;;;;;;;;;;;;5106725;28;20006;-78
2022/10/14 06:51:57;;;;;;;;;;;;;;;;;;5097481;28;19927;-77
2022/10/14 06:54:23;;;;;;;;;;;;;;;;;;5076926;28;19927;-78
2022/10/14 06:56:48;;;;;;;;;;;;;;;;;;5091254;28;20435;-77
2022/10/14 06:59:14;;;;;;;;;;;;;;;;;;5070850;28;20015;-77
2022/10/14 07:01:39;;;;;;;;;;;;;;;;;;5053486;28;20506;-77
2022/10/14 07:04:04;;;;;;;;;;;;;;;;;;5095587;28;19924;-76
2022/10/14 07:06:30;;;;;;;;;;;;;;;;;;5084706;28;20379;-77
2022/10/14 07:08:56;;;;;;;;;;;;;;;;;;5087591;28;19920;-77
2022/10/14 07:11:22;;;;;;;;;;;;;;;;;;5110814;28;20171;-78
2022/10/14 07:13:48;;;;;;;;;;;;;;;;;;5110577;28;19919;-77
2022/10/14 07:16:13;;;;;;;;;;;;;;;;;;5107697;28;19927;-76
2022/10/14 07:18:38;;;;;;;;;;;;;;;;;;5102421;28;19961;-76
2022/10/14 07:21:04;;;;;;;;;;;;;;;;;;5114052;28;19973;-75
2022/10/14 07:23:29;;;;;;;;;;;;;;;;;;5102127;28;20192;-76
2022/10/14 07:25:56;;;;;;;;;;;;;;;;;;5110729;28;19920;-77
2022/10/14 07:28:21;;;;;;;;;;;;;;;;;;5108229;28;19915;-76
2022/10/14 07:30:55;;;;;;;;;;;;;;;;;;5110223;28;20249;-76
2022/10/14 07:33:20;;;;;;;;;;;;;;;;;;5073866;28;19919;-77
2022/10/14 07:35:47;;;;;;;;;;;;;;;;;;5096529;28;19973;-77
2022/10/14 07:38:13;;;;;;;;;;;;;;;;;;5074970;28;20242;-76
2022/10/14 07:40:38;;;;;;;;;;;;;;;;;;5108218;28;19916;-79
2022/10/14 07:43:04;;;;;;;;;;;;;;;;;;5102676;28;20237;-78
2022/10/14 07:45:34;;;;;;;;;;;;;;;;;;5104198;28;20348;-76
2022/10/14 07:47:59;;;;;;;;;;;;;;;;;;5103968;28;20034;-78
2022/10/14 07:50:24;;;;;;;;;;;;;;;;;;5087771;28;20002;-78
2022/10/14 07:52:50;;;;;;;;;;;;;;;;;;5089833;28;19916;-77
2022/10/14 07:55:15;;;;;;;;;;;;;;;;;;5093859;28;19943;-76
2022/10/14 07:57:41;;;;;;;;;;;;;;;;;;5100313;28;19919;-77
2022/10/14 08:00:17;;;;;;;;;;;;;;;;;;5095565;28;20360;-75
2022/10/14 08:02:43;;;;;;;;;;;;;;;;;;5106602;28;19924;-75
2022/10/14 08:05:08;;;;;;;;;;;;;;;;;;5095741;28;19920;-76
2022/10/14 08:07:34;;;;;;;;;;;;;;;;;;5108994;28;19927;-76
2022/10/14 08:10:00;;;;;;;;;;;;;;;;;;5080410;28;19919;-74
2022/10/14 08:12:26;;;;;;;;;;;;;;;;;;5104433;28;19924;-77
2022/10/14 08:14:53;;;;;;;;;;;;;;;;;;5092179;28;19916;-76
2022/10/14 08:17:19;;;;;;;;;;;;;;;;;;5101795;28;20301;-77
2022/10/14 08:19:44;;;;;;;;;;;;;;;;;;5109098;28;19916;-76
2022/10/14 08:22:09;;;;;;;;;;;;;;;;;;5094552;28;20314;-76
2022/10/14 08:24:36;;;;;;;;;;;;;;;;;;5108402;28;19920;-75
2022/10/14 08:27:01;;;;;;;;;;;;;;;;;;5084301;28;19931;-75
2022/10/14 08:29:28;;;;;;;;;;;;;;;;;;5066564;28;20106;-78
2022/10/14 08:31:54;;;;;;;;;;;;;;;;;;5105925;28;19924;-76
2022/10/14 08:34:20;;;;;;;;;;;;;;;;;;5110234;28;19920;-77
2022/10/14 08:36:49;;;;;;;;;;;;;;;;;;5107209;28;19970;-76
2022/10/14 08:39:18;;;;;;;;;;;;;;;;;;5093070;28;19920;-78
2022/10/14 08:42:02;;;;;;;;;;;;;;;;;;5115668;28;19915;-75
2022/10/14 08:44:33;;;;;;;;;;;;;;;;;;5091679;28;19995;-77
2022/10/14 08:46:59;;;;;;;;;;;;;;;;;;5077034;28;20006;-79
2022/10/14 08:49:42;;;;;;;;;;;;;;;;;;5078041;28;19939;-76
2022/10/14 08:52:08;;;;;;;;;;;;;;;;;;5092726;28;20365;-75
2022/10/14 08:54:33;;;;;;;;;;;;;;;;;;5104952;28;19920;-75
2022/10/14 08:56:59;;;;;;;;;;;;;;;;;;5116557;28;19947;-77
2022/10/14 08:59:24;;;;;;;;;;;;;;;;;;5076905;28;20288;-75
2022/10/14 09:01:54;;;;;;;;;;;;;;;;;;5074386;28;19931;-76
2022/10/14 09:04:20;;;;;;;;;;;;;;;;;;5091881;28;19916;-78
2022/10/14 09:06:46;;;;;;;;;;;;;;;;;;5090306;28;19923;-77
2022/10/14 09:09:20;;;;;;;;;;;;;;;;;;5051729;28;19927;-78
2022/10/14 09:11:47;;;;;;;;;;;;;;;;;;5051755;28;19917;-77
2022/10/14 09:14:15;;;;;;;;;;;;;;;;;;5071008;28;20514;-77
2022/10/14 09:16:40;;;;;;;;;;;;;;;;;;5071818;28;19928;-75
2022/10/14 09:19:21;;;;;;;;;;;;;;;;;;5055502;28;19928;-78
2022/10/14 09:21:50;;;;;;;;;;;;;;;;;;5071694;28;20310;-76
2022/10/14 09:24:22;;;;;;;;;;;;;;;;;;5072982;28;19966;-78
2022/10/14 09:26:49;;;;;;;;;;;;;;;;;;5073575;28;19927;-78
2022/10/14 09:29:14;;;;;;;;;;;;;;;;;;5074003;28;20252;-77
2022/10/14 09:31:40;;;;;;;;;;;;;;;;;;5056984;28;20006;-77
2022/10/14 09:34:05;;;;;;;;;;;;;;;;;;5073068;28;20003;-77
2022/10/14 09:36:32;;;;;;;;;;;;;;;;;;5081042;28;19920;-78
2022/10/14 09:38:57;;;;;;;;;;;;;;;;;;5077086;28;20052;-76
2022/10/14 09:41:24;;;;;;;;;;;;;;;;;;5056478;28;20009;-77
2022/10/14 09:44:08;;;;;;;;;;;;;;;;;;5078147;28;19982;-74
2022/10/14 09:46:34;;;;;;;;;;;;;;;;;;5081985;28;20253;-76
2022/10/14 09:48:59;;;;;;;;;;;;;;;;;;5079983;28;19917;-76
2022/10/14 09:51:25;;;;;;;;;;;;;;;;;;5087868;28;19926;-76
2022/10/14 09:53:54;;;;;;;;;;;;;;;;;;5074786;28;19926;-75
2022/10/14 09:56:29;;;;;;;;;;;;;;;;;;5068146;28;19999;-77
2022/10/14 09:59:03;;;;;;;;;;;;;;;;;;5053561;28;19921;-78
2022/10/14 10:01:31;;;;;;;;;;;;;;;;;;5055266;28;20011;-77
2022/10/14 10:03:57;;;;;;;;;;;;;;;;;;5057272;28;19924;-78
2022/10/14 10:06:24;;;;;;;;;;;;;;;;;;5040038;28;19917;-78
2022/10/14 10:08:52;;;;;;;;;;;;;;;;;;5062092;28;19927;-78
2022/10/14 10:11:38;;;;;;;;;;;;;;;;;;5094590;28;19918;-77
2022/10/14 10:14:16;;;;;;;;;;;;;;;;;;5092062;28;20014;-78
2022/10/14 10:16:41;;;;;;;;;;;;;;;;;;5091001;28;20050;-78
2022/10/14 10:19:25;;;;;;;;;;;;;;;;;;5077203;28;19975;-78
2022/10/14 10:21:51;;;;;;;;;;;;;;;;;;5077321;28;19916;-77
2022/10/14 10:24:19;;;;;;;;;;;;;;;;;;5094678;28;20364;-76
2022/10/14 10:26:46;;;;;;;;;;;;;;;;;;5094492;28;19950;-76
2022/10/14 10:29:21;;;;;;;;;;;;;;;;;;5093760;28;19961;-78
2022/10/14 10:32:05;;;;;;;;;;;;;;;;;;5075203;28;19920;-77
2022/10/14 10:35:02;;;;;;;;;;;;;;;;;;5098197;28;19942;-78
2022/10/14 10:37:32;;;;;;;;;;;;;;;;;;5074290;28;20406;-77
2022/10/14 10:40:17;;;;;;;;;;;;;;;;;;5090190;28;19982;-76
2022/10/14 10:42:50;;;;;;;;;;;;;;;;;;5087215;28;19947;-76
2022/10/14 10:45:35;;;;;;;;;;;;;;;;;;5085970;28;19993;-75
2022/10/14 10:48:10;;;;;;;;;;;;;;;;;;5089143;28;19920;-76
2022/10/14 10:50:55;;;;;;;;;;;;;;;;;;5089571;28;19923;-76
2022/10/14 10:53:23;;;;;;;;;;;;;;;;;;5089291;28;19916;-76
2022/10/14 10:55:52;;;;;;;;;;;;;;;;;;5088839;28;19924;-74
2022/10/14 10:58:36;;;;;;;;;;;;;;;;;;5080479;28;19939;-77
2022/10/14 11:01:09;;;;;;;;;;;;;;;;;;5081653;28;20011;-77
2022/10/14 11:03:53;;;;;;;;;;;;;;;;;;5086006;28;19960;-76
2022/10/14 11:12:01;;;;;;;;;;;;;;;;;;5085872;28;19970;-77
2022/10/14 11:12:02;;;;;;;;;;;;;;;;;;5110234;28;19922;-78
2022/10/14 11:14:45;;;;;;;;;;;;;;;;;;5091880;28;20003;-79
2022/10/14 11:17:13;;;;;;;;;;;;;;;;;;5112118;28;20263;-78
2022/10/14 11:19:41;;;;;;;;;;;;;;;;;;5092804;28;20261;-78
2022/10/14 11:22:19;;;;;;;;;;;;;;;;;;5075210;28;20264;-78
2022/10/14 11:24:53;;;;;;;;;;;;;;;;;;5111326;28;20099;-78
2022/10/14 11:27:22;;;;;;;;;;;;;;;;;;5095058;28;19953;-78
2022/10/14 11:29:52;;;;;;;;;;;;;;;;;;5117013;28;19916;-77
2022/10/14 11:32:37;;;;;;;;;;;;;;;;;;5107629;28;20224;-77
2022/10/14 11:35:20;;;;;;;;;;;;;;;;;;5114068;28;19920;-78
2022/10/14 11:37:58;;;;;;;;;;;;;;;;;;5098185;28;19959;-79
2022/10/14 11:40:24;;;;;;;;;;;;;;;;;;5116119;28;19934;-79
2022/10/14 11:43:01;;;;;;;;;;;;;;;;;;5095926;28;19920;-79
2022/10/14 11:45:41;;;;;;;;;;;;;;;;;;5117554;28;19922;-78
2022/10/14 11:48:17;;;;;;;;;;;;;;;;;;5115828;28;19916;-77
2022/10/14 11:50:43;;;;;;;;;;;;;;;;;;5094386;28;19930;-78
2022/10/14 11:53:12;;;;;;;;;;;;;;;;;;5091684;28;20337;-79
2022/10/14 11:55:38;;;;;;;;;;;;;;;;;;5094223;28;19962;-79
2022/10/14 11:58:05;;;;;;;;;;;;;;;;;;5075747;28;20027;-79
2022/10/14 12:00:31;;;;;;;;;;;;;;;;;;5075428;28;20026;-76
2022/10/14 12:03:11;;;;;;;;;;;;;;;;;;5075219;28;20027;-78
2022/10/14 12:05:47;;;;;;;;;;;;;;;;;;5094293;28;20321;-79
2022/10/14 12:08:42;;;;;;;;;;;;;;;;;;5076318;28;20010;-78
2022/10/14 12:11:08;;;;;;;;;;;;;;;;;;5022774;28;20008;-79
2022/10/14 12:13:46;;;;;;;;;;;;;;;;;;5076875;28;19916;-78
2022/10/14 12:16:12;;;;;;;;;;;;;;;;;;5096186;28;19916;-79
2022/10/14 12:18:37;;;;;;;;;;;;;;;;;;5077176;28;19950;-78
2022/10/14 12:21:03;;;;;;;;;;;;;;;;;;5095453;28;19979;-79
2022/10/14 12:23:31;;;;;;;;;;;;;;;;;;5096597;28;19969;-79
2022/10/14 12:26:00;;;;;;;;;;;;;;;;;;5102516;28;19917;-84
2022/10/14 12:28:25;;;;;;;;;;;;;;;;;;5106194;28;19916;-83
2022/10/14 12:30:50;;;;;;;;;;;;;;;;;;5080214;28;19939;-78
2022/10/14 12:33:16;;;;;;;;;;;;;;;;;;5079567;28;19916;-85
2022/10/14 12:35:44;;;;;;;;;;;;;;;;;;5096312;28;19995;-81
2022/10/14 12:38:09;;;;;;;;;;;;;;;;;;5097355;28;19916;-75
2022/10/14 12:40:35;;;;;;;;;;;;;;;;;;5078987;28;19958;-81
2022/10/14 12:43:01;;;;;;;;;;;;;;;;;;5078692;28;19917;-81
2022/10/14 12:45:27;;;;;;;;;;;;;;;;;;5078570;28;19917;-79
2022/10/14 12:48:04;;;;;;;;;;;;;;;;;;5078281;28;19918;-81
2022/10/14 12:50:30;;;;;;;;;;;;;;;;;;5079154;28;19973;-81
2022/10/14 12:52:56;;;;;;;;;;;;;;;;;;5078625;28;19912;-81
2022/10/14 12:55:22;;;;;;;;;;;;;;;;;;5096285;28;19916;-80
2022/10/14 12:58:03;;;;;;;;;;;;;;;;;;5078448;28;19942;-80
2022/10/14 13:00:29;;;;;;;;;;;;;;;;;;5078762;28;19920;-80
2022/10/14 13:02:55;;;;;;;;;;;;;;;;;;5077944;28;19924;-81
2022/10/14 13:05:22;;;;;;;;;;;;;;;;;;5078180;28;20007;-81
2022/10/14 13:08:08;;;;;;;;;;;;;;;;;;5078565;28;19916;-80
2022/10/14 13:10:36;;;;;;;;;;;;;;;;;;5096516;28;19927;-81
2022/10/14 13:13:22;;;;;;;;;;;;;;;;;;5096231;28;19916;-81
2022/10/14 13:15:49;;;;;;;;;;;;;;;;;;5095961;28;19958;-80
2022/10/14 13:18:29;;;;;;;;;;;;;;;;;;5077835;28;19923;-80
2022/10/14 13:20:56;;;;;;;;;;;;;;;;;;5094911;28;19916;-82
2022/10/14 13:23:30;;;;;;;;;;;;;;;;;;5096082;28;19916;-82
2022/10/14 13:26:19;;;;;;;;;;;;;;;;;;5096485;28;19923;-80
2022/10/14 13:28:47;;;;;;;;;;;;;;;;;;5067241;28;19916;-79
2022/10/14 13:31:17;;;;;;;;;;;;;;;;;;5077716;28;20329;-80
2022/10/14 13:33:44;;;;;;;;;;;;;;;;;;5078176;28;19939;-80
2022/10/14 13:36:15;;;;;;;;;;;;;;;;;;5077596;28;20019;-79
2022/10/14 13:38:42;;;;;;;;;;;;;;;;;;5077730;28;19959;-80
2022/10/14 13:41:11;;;;;;;;;;;;;;;;;;5078288;28;19923;-80
2022/10/14 13:43:41;;;;;;;;;;;;;;;;;;5095880;28;19923;-80
2022/10/14 13:46:16;;;;;;;;;;;;;;;;;;5077694;28;20323;-81
2022/10/14 13:48:43;;;;;;;;;;;;;;;;;;5077126;28;19922;-81
2022/10/14 13:51:14;;;;;;;;;;;;;;;;;;5076748;28;19923;-80
2022/10/14 13:53:56;;;;;;;;;;;;;;;;;;5095347;28;19916;-81
2022/10/14 13:56:25;;;;;;;;;;;;;;;;;;5077327;28;19955;-81
2022/10/14 13:58:50;;;;;;;;;;;;;;;;;;5077343;28;19940;-82
2022/10/14 14:01:16;;;;;;;;;;;;;;;;;;5097788;28;19917;-80
2022/10/14 14:03:42;;;;;;;;;;;;;;;;;;5079215;28;19951;-81
2022/10/14 14:06:08;;;;;;;;;;;;;;;;;;5079811;28;20265;-81
2022/10/14 14:08:33;;;;;;;;;;;;;;;;;;5080215;28;20015;-81
2022/10/14 14:11:00;;;;;;;;;;;;;;;;;;5079921;28;19959;-82
2022/10/14 14:13:25;;;;;;;;;;;;;;;;;;5108381;28;19923;-83
2022/10/14 14:15:51;;;;;;;;;;;;;;;;;;5100252;28;19924;-82
2022/10/14 14:18:43;;;;;;;;;;;;;;;;;;5118594;28;19912;-82
2022/10/14 14:21:11;;;;;;;;;;;;;;;;;;5113814;28;19908;-82
2022/10/14 14:23:36;;;;;;;;;;;;;;;;;;5096483;28;19940;-81
2022/10/14 14:26:01;;;;;;;;;;;;;;;;;;5098169;28;19915;-81
2022/10/14 14:28:29;;;;;;;;;;;;;;;;;;5084374;28;19923;-81
2022/10/14 14:30:54;;;;;;;;;;;;;;;;;;5080533;28;19923;-81
2022/10/14 14:33:38;;;;;;;;;;;;;;;;;;5095579;28;19999;-81
2022/10/14 14:36:04;;;;;;;;;;;;;;;;;;5076728;28;19948;-80
2022/10/14 14:38:30;;;;;;;;;;;;;;;;;;5076533;28;20329;-81
2022/10/14 14:41:16;;;;;;;;;;;;;;;;;;5076455;28;19916;-81
2022/10/14 14:43:41;;;;;;;;;;;;;;;;;;5077002;28;20011;-80
2022/10/14 14:46:07;;;;;;;;;;;;;;;;;;5076802;28;19959;-81
2022/10/14 14:48:33;;;;;;;;;;;;;;;;;;5077524;28;19942;-79
2022/10/14 14:50:58;;;;;;;;;;;;;;;;;;5095422;28;19916;-79
2022/10/14 14:53:28;;;;;;;;;;;;;;;;;;5094805;28;19912;-81
2022/10/14 14:55:59;;;;;;;;;;;;;;;;;;5094757;28;19916;-81
2022/10/14 14:58:31;;;;;;;;;;;;;;;;;;5094136;28;19916;-80
2022/10/14 15:00:56;;;;;;;;;;;;;;;;;;5059617;28;19912;-80
2022/10/14 15:03:22;;;;;;;;;;;;;;;;;;5094684;28;19916;-81
2022/10/14 15:05:48;;;;;;;;;;;;;;;;;;5076548;28;19965;-81
2022/10/14 15:08:24;;;;;;;;;;;;;;;;;;5075954;28;20277;-81
2022/10/14 15:10:49;;;;;;;;;;;;;;;;;;5094460;28;20003;-81
2022/10/14 15:13:25;;;;;;;;;;;;;;;;;;5076039;28;20326;-81
2022/10/14 15:15:53;;;;;;;;;;;;;;;;;;5076738;28;19916;-81
2022/10/14 15:18:19;;;;;;;;;;;;;;;;;;5094260;28;20378;-82
2022/10/14 15:20:45;;;;;;;;;;;;;;;;;;5094230;28;19923;-81
2022/10/14 15:23:46;;;;;;;;;;;;;;;;;;5076033;28;20343;-80
2022/10/14 15:26:30;;;;;;;;;;;;;;;;;;5011910;28;19918;-80
2022/10/14 15:29:07;;;;;;;;;;;;;;;;;;5087433;28;19959;-80
2022/10/14 15:31:33;;;;;;;;;;;;;;;;;;5094065;28;19922;-81
2022/10/14 15:33:58;;;;;;;;;;;;;;;;;;5075988;28;19916;-81
2022/10/14 15:36:24;;;;;;;;;;;;;;;;;;5075884;28;19963;-80
2022/10/14 15:38:55;;;;;;;;;;;;;;;;;;5094215;28;19916;-81
2022/10/14 15:41:20;;;;;;;;;;;;;;;;;;5075771;28;19916;-81
2022/10/14 15:43:45;;;;;;;;;;;;;;;;;;5093854;28;19916;-80
2022/10/14 15:48:55;;;;;;;;;;;;;;;;;;5093854;28;19961;-81
2022/10/14 15:51:20;;;;;;;;;;;;;;;;;;5093946;28;19916;-81
2022/10/14 15:53:46;;;;;;;;;;;;;;;;;;5075757;28;19919;-81
2022/10/14 15:56:11;;;;;;;;;;;;;;;;;;5093555;28;19958;-82
2022/10/14 15:58:36;;;;;;;;;;;;;;;;;;5075975;28;19924;-81
2022/10/14 16:01:02;;;;;;;;;;;;;;;;;;5075671;28;19967;-82
2022/10/14 16:03:27;;;;;;;;;;;;;;;;;;5075681;28;19916;-80
2022/10/14 16:05:52;;;;;;;;;;;;;;;;;;5075756;28;19916;-81
2022/10/14 16:08:18;;;;;;;;;;;;;;;;;;5075797;28;19920;-81
2022/10/14 16:10:43;;;;;;;;;;;;;;;;;;5075326;28;19924;-82
2022/10/14 16:13:12;;;;;;;;;;;;;;;;;;5077073;28;19919;-81
2022/10/14 16:15:43;;;;;;;;;;;;;;;;;;5079164;28;19954;-81
2022/10/14 16:18:09;;;;;;;;;;;;;;;;;;5097288;28;20416;-81
2022/10/14 16:20:34;;;;;;;;;;;;;;;;;;5062516;28;19960;-81
2022/10/14 16:23:03;;;;;;;;;;;;;;;;;;5078852;28;19970;-81
2022/10/14 16:25:38;;;;;;;;;;;;;;;;;;5095534;28;19916;-79
2022/10/14 16:28:06;;;;;;;;;;;;;;;;;;5079337;28;20342;-82
2022/10/14 16:30:32;;;;;;;;;;;;;;;;;;5097104;28;20307;-80
2022/10/14 16:32:58;;;;;;;;;;;;;;;;;;5078904;28;19920;-81
2022/10/14 16:35:23;;;;;;;;;;;;;;;;;;5079264;28;19916;-81
2022/10/14 16:37:49;;;;;;;;;;;;;;;;;;5078773;28;19938;-81
2022/10/14 16:40:14;;;;;;;;;;;;;;;;;;5078620;28;19916;-80
2022/10/14 16:42:39;;;;;;;;;;;;;;;;;;5096790;28;19968;-81
2022/10/14 16:45:05;;;;;;;;;;;;;;;;;;5078659;28;19942;-81
2022/10/14 16:47:30;;;;;;;;;;;;;;;;;;5097307;28;19916;-81
2022/10/14 16:49:56;;;;;;;;;;;;;;;;;;5096737;28;20443;-80
2022/10/14 16:52:21;;;;;;;;;;;;;;;;;;5078588;28;20347;-81
2022/10/14 16:54:46;;;;;;;;;;;;;;;;;;5078268;28;20332;-81
2022/10/14 16:57:12;;;;;;;;;;;;;;;;;;5096478;28;19916;-80
2022/10/14 16:59:37;;;;;;;;;;;;;;;;;;5078477;28;19916;-81